createdAt,value
2023-03-23T16:00:21.978Z,20.82
2023-03-23T16:03:28.267Z,20.69
2023-03-23T16:06:33.150Z,20.52
2023-03-23T16:09:36.681Z,20.25
2023-03-23T16:12:39.317Z,20.09
2023-03-23T16:15:42.133Z,19.95
2023-03-23T16:18:45.694Z,19.82
2023-03-23T16:21:48.145Z,19.77
2023-03-23T16:24:50.587Z,19.70
2023-03-23T16:27:54.586Z,19.65
2023-03-23T16:30:57.376Z,19.46
2023-03-23T16:33:59.883Z,19.24
2023-03-23T16:37:02.597Z,19.04
2023-03-23T16:40:07.369Z,18.92
2023-03-23T16:43:10.878Z,18.72
2023-03-23T16:46:14.237Z,18.51
2023-03-23T16:49:17.240Z,18.31
2023-03-23T16:52:20.047Z,18.17
2023-03-23T16:55:22.771Z,18.01
2023-03-23T16:58:25.366Z,17.91
2023-03-23T17:01:27.909Z,17.79
2023-03-23T17:04:31.684Z,17.64
2023-03-23T17:07:34.267Z,17.61
2023-03-23T17:10:39.402Z,17.49
2023-03-23T17:13:42.571Z,17.35
2023-03-23T17:16:45.255Z,17.22
2023-03-23T17:19:47.966Z,17.15
2023-03-23T17:22:50.706Z,17.05
2023-03-23T17:25:54.694Z,16.90
2023-03-23T17:28:57.558Z,16.72
2023-03-23T17:32:00.123Z,16.52
2023-03-23T17:35:05.393Z,16.40
2023-03-23T17:38:07.998Z,16.23
2023-03-23T17:41:11.585Z,16.06
2023-03-23T17:44:14.578Z,15.92
2023-03-23T17:47:17.699Z,15.73
2023-03-23T17:50:20.541Z,15.53
2023-03-23T17:53:25.614Z,15.42
2023-03-23T17:56:28.610Z,15.33
2023-03-23T17:59:31.694Z,15.26
2023-03-23T18:02:38.020Z,15.25
2023-03-23T18:05:41.130Z,15.22
2023-03-23T18:08:44.738Z,15.14
2023-03-23T18:11:47.338Z,15.07
2023-03-23T18:14:51.199Z,14.98
2023-03-23T18:17:54.053Z,14.87
2023-03-23T18:21:02.289Z,14.78
2023-03-23T18:24:05.717Z,14.77
2023-03-23T18:27:08.425Z,14.71
2023-03-23T18:30:11.787Z,14.64
2023-03-23T18:33:15.530Z,14.60
2023-03-23T18:36:20.716Z,14.51
2023-03-23T18:39:23.681Z,14.43
2023-03-23T18:42:26.975Z,14.45
2023-03-23T18:45:29.618Z,14.47
2023-03-23T18:48:32.702Z,14.47
2023-03-23T18:51:37.851Z,14.45
2023-03-23T18:54:41.789Z,14.40
2023-03-23T18:57:44.578Z,14.30
2023-03-23T19:00:47.918Z,14.22
2023-03-23T19:03:51.253Z,14.09
2023-03-23T19:06:54.371Z,13.98
2023-03-23T19:09:57.063Z,13.94
2023-03-23T19:13:00.017Z,13.87
2023-03-23T19:16:03.983Z,13.83
2023-03-23T19:19:08.385Z,13.80
2023-03-23T19:22:12.877Z,13.80
2023-03-23T19:25:18.026Z,13.80
2023-03-23T19:29:05.584Z,13.84
2023-03-23T19:31:46.288Z,13.70
2023-03-23T19:34:51.176Z,13.52
2023-03-23T19:37:53.997Z,13.46
2023-03-23T19:41:04.930Z,13.45
2023-03-23T19:44:08.775Z,13.55
2023-03-23T19:47:11.711Z,13.56
2023-03-23T19:50:17.069Z,13.51
2023-03-23T19:53:21.194Z,13.46
2023-03-23T19:56:25.272Z,13.31
2023-03-23T19:59:29.772Z,13.13
2023-03-23T20:02:33.138Z,12.96
2023-03-23T20:05:37.016Z,12.78
2023-03-23T20:08:45.452Z,12.63
2023-03-23T20:11:50.105Z,12.52
2023-03-23T20:14:53.196Z,12.47
2023-03-23T20:17:57.975Z,12.39
2023-03-23T20:21:22.591Z,12.22
2023-03-23T20:24:25.798Z,12.17
2023-03-23T20:27:28.944Z,12.12
2023-03-23T20:30:32.027Z,12.04
2023-03-23T20:33:35.931Z,11.98
2023-03-23T20:36:42.253Z,11.97
2023-03-23T20:39:48.181Z,11.92
2023-03-23T20:42:52.746Z,11.85
2023-03-23T20:45:57.665Z,11.78
2023-03-23T20:49:01.197Z,11.68
2023-03-23T20:52:06.294Z,11.56
2023-03-23T20:55:09.723Z,11.47
2023-03-23T20:58:14.759Z,11.36
2023-03-23T21:01:17.788Z,11.29
2023-03-23T21:04:30.233Z,11.24
2023-03-23T21:07:33.175Z,11.23
2023-03-23T21:10:37.457Z,11.24
2023-03-23T21:13:40.281Z,11.16
2023-03-23T21:16:43.787Z,11.07
2023-03-23T21:19:47.745Z,10.98
2023-03-23T21:22:50.801Z,10.98
2023-03-23T21:25:54.635Z,11.06
2023-03-23T21:29:00.312Z,11.15
2023-03-23T21:32:08.348Z,11.18
2023-03-23T21:35:12.106Z,11.23
2023-03-23T21:38:14.969Z,11.16
2023-03-23T21:41:17.612Z,11.11
2023-03-23T21:44:20.099Z,10.98
2023-03-23T21:47:22.756Z,10.85
2023-03-23T21:50:25.547Z,10.72
2023-03-23T21:53:30.972Z,10.63
2023-03-23T21:56:33.947Z,10.48
2023-03-23T21:59:37.124Z,10.37
2023-03-23T22:02:40.018Z,10.30
2023-03-23T22:05:43.226Z,10.29
2023-03-23T22:08:47.101Z,10.31
2023-03-23T22:11:50.282Z,10.15
2023-03-23T22:14:53.187Z,10.11
2023-03-23T22:17:56.301Z,10.13
2023-03-23T22:20:59.933Z,10.10
2023-03-23T22:24:02.852Z,10.00
2023-03-23T22:27:05.593Z,9.99
2023-03-23T22:30:08.916Z,9.92
2023-03-23T22:33:12.399Z,9.85
2023-03-23T22:36:17.036Z,9.78
2023-03-23T22:39:19.723Z,9.71
2023-03-23T22:42:22.623Z,9.63
2023-03-23T22:45:26.229Z,9.62
2023-03-23T22:48:29.232Z,9.54
2023-03-23T22:51:32.281Z,9.48
2023-03-23T22:54:35.109Z,9.42
2023-03-23T22:57:37.904Z,9.39
2023-03-23T23:00:43.890Z,9.44
2023-03-23T23:03:46.784Z,9.41
2023-03-23T23:06:50.095Z,9.42
2023-03-23T23:09:53.422Z,9.34
2023-03-23T23:12:56.034Z,9.31
2023-03-23T23:16:00.549Z,9.23
2023-03-23T23:19:03.269Z,9.23
2023-03-23T23:22:18.539Z,9.22
2023-03-23T23:25:22.499Z,9.25
2023-03-23T23:28:25.623Z,9.21
2023-03-23T23:31:31.532Z,9.22
2023-03-23T23:34:34.884Z,9.20
2023-03-23T23:37:37.898Z,9.23
2023-03-23T23:40:42.941Z,9.20
2023-03-23T23:43:46.091Z,9.15
2023-03-23T23:46:48.668Z,9.10
2023-03-23T23:49:51.526Z,9.09
2023-03-23T23:52:54.451Z,9.18
2023-03-23T23:56:00.406Z,9.35
2023-03-23T23:59:03.249Z,9.48
